Capitao de Campos, Brazil
Current Conditions -  °F | °C
As of 3:00 PM on Sunday 21 Dec 2014 (Local Time) from SBTE Reporting Station
Few Clouds Few Clouds  
Wind Chill: 99°   Ceiling: Unl
Heat Index: 103°   Visibility: 6mi
Dew Point: 66°   Wind: 10mph
Humidity: 35%   Direction: 170°S
Pressure: 29.74"   Gusts: NA
Location:  4.46°S, 41.94°W
Report Text: SBTE 211800Z 17009KT 9999 FEW030 37/19 Q1007
Loading
Personal Weather Stations






























Interactive Weather Map New forecast layout! Learn more

10-Day Weather Forecast

Advertisements
Track Severe Weather on mobile